This is the latest recevied weather packets stored in our database for station/object SP3ZBZ-13. If no packets are shown the sender has not sent any weather packets the latest 10 day(s).
| Time | Temp. | Humidity | Pressure | Rain* | Wind** | Luminosity | Snow |
|---|---|---|---|---|---|---|---|
| 1777715946 | 23.33° C | 27% | 1018.3 hPa | - | - | 659 W/m² | - |
| 1777715046 | 22.78° C | 28% | 1018.5 hPa | - | - | 642 W/m² | - |
| 1777714144 | 22.22° C | 30% | 1018.6 hPa | - | - | 627 W/m² | - |
| 1777713244 | 22.22° C | 30% | 1018.8 hPa | - | - | 74 W/m² | - |
| 1777712342 | 22.22° C | 31% | 1018.9 hPa | - | - | 596 W/m² | - |
| 1777711442 | 21.67° C | 29% | 1019.1 hPa | - | - | 570 W/m² | - |
| 1777710540 | 21.67° C | 29% | 1019.2 hPa | - | - | 542 W/m² | - |
| 1777709639 | 21.11° C | 30% | 1019.4 hPa | - | - | 512 W/m² | - |
| 1777708739 | 20.56° C | 31% | 1019.4 hPa | - | - | 489 W/m² | - |
| 1777707838 | 19.44° C | 33% | 1019.5 hPa | - | - | 453 W/m² | - |
| 1777706937 | 20° C | 34% | 1019.6 hPa | - | - | 417 W/m² | - |
| 1777706036 | 18.89° C | 37% | 1019.7 hPa | - | - | 395 W/m² | - |
| 1777705135 | 17.78° C | 43% | 1019.7 hPa | - | - | 344 W/m² | - |
| 1777704234 | 16.11° C | 49% | 1019.8 hPa | - | - | 301 W/m² | - |
| 1777703333 | 15° C | 55% | 1019.9 hPa | - | - | 258 W/m² | - |
| 1777702432 | 13.89° C | 59% | 1019.9 hPa | - | - | 221 W/m² | - |
| 1777701531 | 14.44° C | 57% | 1019.9 hPa | - | - | 185 W/m² | - |
| 1777700630 | 12.78° C | 60% | 1019.9 hPa | - | - | 147 W/m² | - |
| 1777699729 | 11.67° C | 61% | 1019.9 hPa | - | - | 112 W/m² | - |
| 1777698828 | 10.56° C | 63% | 1019.9 hPa | - | - | 81 W/m² | - |
| 1777697927 | 8.33° C | 70% | 1020.1 hPa | - | - | 59 W/m² | - |
| 1777697026 | 7.78° C | 73% | 1020.2 hPa | - | - | 46 W/m² | - |
| 1777696125 | 7.22° C | 74% | 1020.1 hPa | - | - | 38 W/m² | - |
| 1777695224 | 6.11° C | 76% | 1020 hPa | - | - | 30 W/m² | - |
| 1777694323 | 6.11° C | 76% | 1020 hPa | - | - | 21 W/m² | - |
* Rain since midnight (hover to see other rain measurements)
** Current wind speed in m/s (hover to see current wind gust speed)